Terminal Aerodrome Forecast
Issued by NWS Wilmington, OH

Current Version | Previous Version | Graphics & Text | Print | Product List | Glossary On
Versions: 1 2 3 4 5 6 7 8 9 10 11 12 13 14 15 16
000
FTUS41 KILN 140532
TAFCMH
TAF
KCMH 140532Z 1406/1506 08004KT P6SM FEW060 BKN250
     FM141500 18007KT P6SM SCT050 BKN250
     FM150000 00000KT P6SM SCT090=

USA.gov is the U.S. government's official web portal to all federal, state and local government web resources and services.